メインページ
METAR-TAF:

METAR-TAF

空港 :

ハルビン太平国際空港

ハルビン, 中華人民共和国

緯度: 45-45N, 経度: 126-46E, 海抜: 143m

現時点の気象観測

当レポートは40分前の11:00(UTC)に作成
南東の風 6kt
気温 0°C
湿度 74%
気圧 1020 hPa
視程10km以上
1,500メートル以下は雲なし、積乱雲なし

METAR: ZYHB 141100Z 14003MPS CAVOK M00/M04 Q1020 NOSIG

時間: 19:40 (11:40 UTC)

予報

当レポートは2時間28分前の09:12(UTC)に作成
予報は14日の 12時(UTC)から 15日の 12時(UTC)まで有効
の風 8kt
視程: 6000m
高度2600ftの雲は散在している
14日の 20時(UTC)から 14日の 22時(UTC)まで徐々に
北/北西の風 12kt、最大25ktの突風を伴う
14日の 18時(UTC)から 14日の 24時(UTC)まで一時的に
視程: 1600m
小雪

TAF: ZYHB 140912Z 1412/1512 18004MPS 6000 SCT026 TX01/1505Z TNM05/12Z BECMG 1420/1422 33006G13MPS TEMPO 1418/1424 1600 -SN

4,000以上の空港の気象観測と天気予報(METAR報とTAF報)

利用可能な観測所は地図上に黄色い丸と赤い丸で示す。

丸の上にカーソルを重ねると観測所名を参照できる。

次にクリックすると気象観測と天気予報を参照できる。

マップの切り替え:黒色「×」印の緑ボタンをクリックして拡大、「-」印の緑ボタンをクリックして縮小、緑色の三角印をクリックして隣りの地図に切り替え


METAR-TAF: